Time;durP1;ratioP1;P1;durP2;ratioP2;P2;SDS_P1;SDS_P2;PMS_P1;PMS_P2;Temp;Humidity;BMP_temperature;BMP_pressure;BME280_temperature;BME280_humidity;BME280_pressure;Samples;Min_cycle;Max_cycle;Signal;HPM_P1;HPM_P2
2022/10/10 00:04:09;;;;;;;2.03;1.60;;;14.50;38.70;;;;;;10509417;28;20219;-72
2022/10/10 00:09:14;;;;;;;2.40;1.97;;;14.50;38.70;;;;;;10510788;28;20813;-72
2022/10/10 00:14:17;;;;;;;2.07;1.80;;;14.40;38.70;;;;;;10512879;28;20236;-72
2022/10/10 00:19:20;;;;;;;1.97;1.77;;;14.40;38.70;;;;;;10512538;28;20232;-72
2022/10/10 00:24:25;;;;;;;2.07;1.70;;;14.40;38.70;;;;;;10508985;28;20703;-72
2022/10/10 00:29:28;;;;;;;2.10;1.60;;;14.30;38.80;;;;;;10510432;28;20747;-72
2022/10/10 00:34:31;;;;;;;1.57;1.47;;;14.30;38.70;;;;;;10512390;28;20282;-72
2022/10/10 00:39:36;;;;;;;2.07;1.83;;;14.30;38.70;;;;;;10511295;28;20232;-72
2022/10/10 00:44:40;;;;;;;2.20;1.80;;;14.30;38.70;;;;;;10513072;28;20232;-72
2022/10/10 00:49:44;;;;;;;1.70;1.60;;;14.30;38.60;;;;;;10513469;28;20228;-72
2022/10/10 00:54:49;;;;;;;1.80;1.70;;;14.20;38.80;;;;;;10511508;28;20235;-72
2022/10/10 00:59:53;;;;;;;2.00;1.80;;;14.20;38.80;;;;;;10521764;28;20225;-73
2022/10/10 01:04:56;;;;;;;1.90;1.80;;;14.10;38.80;;;;;;10508799;28;20681;-73
2022/10/10 01:10:05;;;;;;;2.37;1.80;;;14.10;38.70;;;;;;10510894;28;20712;-74
2022/10/10 01:15:17;;;;;;;3.00;2.00;;;14.00;38.90;;;;;;10510971;28;20231;-73
2022/10/10 01:20:56;;;;;;;1.87;1.77;;;14.00;38.90;;;;;;10513654;28;20711;-72
2022/10/10 01:26:21;;;;;;;2.20;2.00;;;14.00;39.00;;;;;;10507686;28;20224;-72
2022/10/10 01:31:29;;;;;;;3.17;1.53;;;13.90;38.90;;;;;;10514388;28;20227;-71
2022/10/10 01:36:39;;;;;;;2.23;2.03;;;13.90;38.70;;;;;;10509577;28;20586;-71
2022/10/10 01:41:49;;;;;;;2.57;2.03;;;13.80;39.00;;;;;;10505737;28;20224;-71
2022/10/10 01:46:53;;;;;;;2.37;2.13;;;13.80;38.70;;;;;;10505857;28;20264;-71
2022/10/10 01:52:07;;;;;;;2.10;1.90;;;13.70;38.60;;;;;;10500889;28;20235;-72
2022/10/10 01:57:20;;;;;;;2.10;1.90;;;13.60;39.00;;;;;;10511517;28;20230;-71
2022/10/10 02:02:35;;;;;;;2.00;1.90;;;13.50;39.00;;;;;;10505716;28;20692;-72
2022/10/10 02:07:44;;;;;;;2.47;2.00;;;13.50;39.10;;;;;;10512330;28;20721;-71
2022/10/10 02:12:49;;;;;;;2.07;1.57;;;13.50;39.00;;;;;;10512728;28;20719;-71
2022/10/10 02:17:56;;;;;;;2.63;2.00;;;13.40;38.70;;;;;;10505818;28;20243;-71
2022/10/10 02:22:59;;;;;;;2.60;1.53;;;13.30;38.70;;;;;;10513793;22;20232;-70
2022/10/10 02:28:09;;;;;;;2.00;1.90;;;13.30;38.60;;;;;;10503091;28;20219;-71
2022/10/10 02:33:18;;;;;;;2.10;1.90;;;13.20;39.00;;;;;;10500476;28;20228;-71
2022/10/10 02:38:21;;;;;;;2.63;2.20;;;13.20;39.00;;;;;;10504539;28;20782;-71
2022/10/10 02:43:25;;;;;;;2.07;1.87;;;13.10;38.80;;;;;;10503842;28;20231;-71
2022/10/10 02:48:30;;;;;;;2.30;2.10;;;13.10;38.80;;;;;;10504682;28;20229;-71
2022/10/10 02:53:34;;;;;;;2.70;1.73;;;13.00;38.80;;;;;;10504142;28;20274;-71
2022/10/10 02:58:38;;;;;;;2.53;1.90;;;13.00;38.90;;;;;;10500194;28;20684;-71
2022/10/10 03:03:42;;;;;;;1.90;1.80;;;13.00;38.80;;;;;;10504679;28;20289;-71
2022/10/10 03:08:45;;;;;;;2.67;2.03;;;12.90;38.80;;;;;;10508475;28;20239;-71
2022/10/10 03:13:48;;;;;;;2.10;2.00;;;12.90;38.80;;;;;;10499641;28;20220;-71
2022/10/10 03:18:53;;;;;;;2.03;1.93;;;12.80;38.60;;;;;;10509241;28;20224;-71
2022/10/10 03:23:57;;;;;;;2.30;2.10;;;12.80;38.80;;;;;;10500416;28;20292;-71
2022/10/10 03:29:01;;;;;;;1.80;1.70;;;12.80;38.90;;;;;;10502367;28;20228;-71
2022/10/10 03:34:06;;;;;;;2.10;2.00;;;12.70;39.10;;;;;;10502429;28;20769;-71
2022/10/10 03:39:10;;;;;;;3.37;2.73;;;12.70;39.30;;;;;;10502609;28;20230;-71
2022/10/10 03:44:13;;;;;;;2.70;2.50;;;12.70;39.30;;;;;;10507510;28;20751;-71
2022/10/10 03:49:18;;;;;;;3.10;2.60;;;12.70;39.40;;;;;;10499627;28;20240;-71
2022/10/10 03:54:21;;;;;;;3.10;2.70;;;12.70;39.70;;;;;;10507653;28;20250;-71
2022/10/10 03:59:24;;;;;;;2.53;2.33;;;12.70;39.60;;;;;;10504731;28;20293;-71
2022/10/10 04:04:29;;;;;;;2.47;2.00;;;12.70;39.70;;;;;;10516179;28;20228;-71
2022/10/10 04:09:32;;;;;;;4.03;2.50;;;12.60;40.00;;;;;;10510873;28;20235;-71
2022/10/10 04:14:35;;;;;;;3.20;2.53;;;12.70;40.10;;;;;;10510264;28;20239;-71
2022/10/10 04:19:40;;;;;;;3.80;2.70;;;12.70;40.20;;;;;;10508574;28;20236;-71
2022/10/10 04:24:43;;;;;;;2.60;2.30;;;12.70;40.60;;;;;;10511439;28;20240;-71
2022/10/10 04:29:46;;;;;;;5.83;2.97;;;12.70;40.30;;;;;;10501662;28;20232;-71
2022/10/10 04:34:51;;;;;;;5.53;3.50;;;12.60;40.40;;;;;;10504638;28;20235;-71
2022/10/10 04:39:54;;;;;;;5.60;3.67;;;12.70;41.10;;;;;;10494482;28;20224;-71
2022/10/10 04:44:57;;;;;;;7.90;5.23;;;12.70;40.90;;;;;;10520979;28;20238;-71
2022/10/10 04:50:02;;;;;;;8.93;6.80;;;12.70;41.70;;;;;;10522602;28;20228;-71
2022/10/10 04:55:05;;;;;;;10.97;7.90;;;12.70;41.40;;;;;;10504509;28;20232;-71
2022/10/10 05:00:10;;;;;;;11.10;6.60;;;12.70;41.30;;;;;;10507371;28;20220;-71
2022/10/10 05:05:14;;;;;;;10.20;6.60;;;12.80;41.70;;;;;;10514623;28;20267;-71
2022/10/10 05:10:18;;;;;;;9.93;6.07;;;12.80;42.00;;;;;;10508475;28;20244;-72
2022/10/10 05:15:21;;;;;;;12.57;5.60;;;12.90;41.70;;;;;;10519171;28;20228;-72
2022/10/10 05:20:26;;;;;;;14.77;6.23;;;12.90;41.60;;;;;;10514029;28;20361;-72
2022/10/10 05:25:29;;;;;;;12.63;5.80;;;12.90;42.50;;;;;;10508449;28;20239;-73
2022/10/10 05:30:32;;;;;;;12.43;6.37;;;12.90;42.20;;;;;;10516658;28;20235;-73
2022/10/10 05:35:37;;;;;;;13.60;6.30;;;12.90;42.40;;;;;;10505199;28;20240;-73
2022/10/10 05:40:40;;;;;;;7.93;5.53;;;13.00;42.60;;;;;;10511356;28;20228;-73
2022/10/10 05:45:43;;;;;;;12.80;6.90;;;13.00;42.60;;;;;;10521946;28;20262;-73
2022/10/10 05:50:49;;;;;;;12.07;7.20;;;13.00;42.60;;;;;;10523587;28;20800;-73
2022/10/10 05:55:53;;;;;;;12.37;7.50;;;13.00;42.80;;;;;;10513446;28;20257;-73
2022/10/10 06:01:01;;;;;;;12.73;8.77;;;13.00;42.60;;;;;;10506704;28;20230;-73
2022/10/10 06:06:06;;;;;;;13.80;9.43;;;13.10;42.70;;;;;;10502590;28;20761;-74
2022/10/10 06:11:09;;;;;;;11.77;8.63;;;13.10;43.40;;;;;;10500775;28;20235;-74
2022/10/10 06:16:13;;;;;;;16.90;9.73;;;13.20;42.70;;;;;;10518289;28;20234;-74
2022/10/10 06:21:18;;;;;;;15.67;10.00;;;13.20;42.80;;;;;;10517141;28;20224;-74
2022/10/10 06:26:22;;;;;;;14.77;9.73;;;13.30;43.90;;;;;;10519810;28;20267;-74
2022/10/10 06:31:25;;;;;;;14.00;9.27;;;13.40;43.40;;;;;;10527945;28;20238;-74
2022/10/10 06:36:29;;;;;;;14.47;9.10;;;13.50;43.40;;;;;;10504460;28;21019;-74
2022/10/10 06:41:32;;;;;;;13.17;9.53;;;13.50;44.10;;;;;;10517162;28;20769;-74
2022/10/10 06:46:36;;;;;;;14.47;11.07;;;13.60;43.80;;;;;;10515741;28;20236;-74
2022/10/10 06:51:41;;;;;;;14.00;9.97;;;13.60;43.90;;;;;;10512801;28;20745;-73
2022/10/10 06:56:44;;;;;;;12.47;10.03;;;13.70;44.60;;;;;;10506702;28;20243;-73
2022/10/10 07:01:47;;;;;;;17.43;11.20;;;13.70;44.10;;;;;;10506832;28;20228;-73
2022/10/10 07:06:52;;;;;;;17.67;11.47;;;13.70;44.30;;;;;;10510146;28;20267;-73
2022/10/10 07:11:55;;;;;;;16.70;11.50;;;13.80;45.40;;;;;;10508389;28;20235;-73
2022/10/10 07:16:58;;;;;;;17.17;12.13;;;13.90;44.70;;;;;;10516407;28;20217;-73
2022/10/10 07:22:03;;;;;;;15.00;11.87;;;14.00;45.00;;;;;;10521406;28;20235;-73
2022/10/10 07:27:06;;;;;;;14.17;12.30;;;14.00;45.80;;;;;;10509558;28;20237;-73
2022/10/10 07:32:11;;;;;;;13.67;12.23;;;14.10;45.30;;;;;;10501492;28;20231;-73
2022/10/10 07:37:15;;;;;;;12.93;10.90;;;14.20;45.40;;;;;;10503242;28;20228;-73
2022/10/10 07:42:18;;;;;;;12.13;10.93;;;14.30;46.10;;;;;;10506375;28;20308;-73
2022/10/10 07:47:21;;;;;;;11.17;10.13;;;14.30;45.50;;;;;;10504322;28;20278;-73
2022/10/10 07:52:26;;;;;;;11.60;10.50;;;14.30;45.60;;;;;;10511625;28;20235;-73
2022/10/10 07:57:33;;;;;;;11.10;9.87;;;14.40;46.70;;;;;;10517308;28;20223;-74
2022/10/10 08:02:36;;;;;;;12.30;11.10;;;14.50;46.00;;;;;;10504503;28;20797;-74
2022/10/10 08:07:41;;;;;;;13.17;11.93;;;14.60;46.30;;;;;;10512047;28;20648;-74
2022/10/10 08:12:44;;;;;;;14.00;12.50;;;14.70;47.10;;;;;;10506279;28;20707;-73
2022/10/10 08:17:47;;;;;;;12.87;11.67;;;14.80;46.60;;;;;;10509314;28;20282;-72
2022/10/10 08:22:52;;;;;;;12.50;11.30;;;14.90;46.90;;;;;;10521646;28;20722;-72
2022/10/10 08:27:56;;;;;;;12.17;10.97;;;15.00;47.50;;;;;;10527848;28;20224;-72
2022/10/10 08:33:00;;;;;;;11.90;10.80;;;15.20;46.80;;;;;;10523704;28;20231;-72
2022/10/10 08:38:04;;;;;;;11.67;10.60;;;15.30;47.00;;;;;;10515445;28;20224;-74
2022/10/10 08:43:12;;;;;;;11.30;10.20;;;15.50;47.60;;;;;;10517537;28;20239;-74
2022/10/10 08:48:24;;;;;;;11.43;10.43;;;15.60;48.00;;;;;;10509114;28;20253;-74
2022/10/10 08:53:33;;;;;;;12.30;10.97;;;15.80;47.70;;;;;;10520293;28;20235;-74
2022/10/10 08:58:41;;;;;;;12.17;9.73;;;16.00;48.00;;;;;;10529310;28;20233;-75
2022/10/10 09:03:47;;;;;;;11.10;10.00;;;16.10;47.30;;;;;;10524710;28;20695;-74
2022/10/10 09:09:03;;;;;;;10.57;9.67;;;16.30;47.50;;;;;;10524676;28;20230;-74
2022/10/10 09:14:16;;;;;;;11.50;10.40;;;16.40;47.70;;;;;;10524835;28;20231;-74
2022/10/10 09:19:31;;;;;;;10.23;9.33;;;16.60;48.00;;;;;;10514344;28;20243;-74
2022/10/10 09:24:42;;;;;;;10.10;9.00;;;16.80;47.20;;;;;;10528083;28;20248;-74
2022/10/10 09:29:50;;;;;;;9.53;8.63;;;16.90;46.70;;;;;;10514925;28;20232;-73
2022/10/10 09:34:58;;;;;;;9.40;8.60;;;17.00;46.10;;;;;;10519088;28;20236;-74
2022/10/10 09:40:12;;;;;;;8.20;7.50;;;17.20;46.40;;;;;;10518157;28;20232;-74
2022/10/10 09:45:19;;;;;;;8.77;7.97;;;17.30;47.50;;;;;;10506349;28;20232;-74
2022/10/10 09:50:23;;;;;;;7.93;7.13;;;17.60;46.60;;;;;;10506091;28;20235;-74
2022/10/10 09:55:32;;;;;;;7.67;6.97;;;17.80;46.80;;;;;;10510652;28;20235;-74
2022/10/10 10:00:37;;;;;;;8.17;7.50;;;18.00;47.00;;;;;;10509272;28;20246;-74
2022/10/10 10:05:43;;;;;;;8.17;7.37;;;18.20;46.30;;;;;;10505572;28;20240;-74
2022/10/10 10:10:48;;;;;;;8.30;7.60;;;18.30;46.20;;;;;;10515451;28;20232;-74
2022/10/10 10:15:58;;;;;;;8.43;7.73;;;18.50;46.10;;;;;;10517367;28;20240;-74
2022/10/10 10:21:19;;;;;;;7.77;7.07;;;18.70;45.50;;;;;;10525292;28;20710;-72
2022/10/10 10:26:27;;;;;;;7.07;6.47;;;18.80;45.50;;;;;;10530533;28;20230;-73
2022/10/10 10:31:47;;;;;;;8.00;7.20;;;18.90;45.50;;;;;;10530178;28;20682;-73
2022/10/10 10:36:58;;;;;;;8.30;7.60;;;19.00;45.50;;;;;;10507250;28;20243;-73
2022/10/10 10:42:12;;;;;;;7.27;6.53;;;19.20;45.50;;;;;;10510710;28;20258;-72
2022/10/10 10:47:30;;;;;;;6.87;6.33;;;19.30;45.20;;;;;;10510849;28;20692;-73
2022/10/10 10:52:59;;;;;;;6.63;6.03;;;19.50;45.40;;;;;;10513171;28;20288;-73
2022/10/10 10:58:35;;;;;;;6.67;6.17;;;19.60;45.00;;;;;;10507798;28;20228;-73
2022/10/10 11:04:02;;;;;;;6.20;5.70;;;19.70;44.80;;;;;;10497962;28;20243;-73
2022/10/10 11:09:32;;;;;;;6.13;5.63;;;19.90;44.70;;;;;;10507721;28;20235;-73
2022/10/10 11:14:59;;;;;;;5.80;5.40;;;20.00;44.20;;;;;;10506784;28;20643;-73
2022/10/10 11:20:05;;;;;;;5.83;5.33;;;20.20;44.30;;;;;;10502813;28;20239;-73
2022/10/10 11:25:16;;;;;;;5.90;5.43;;;20.30;44.40;;;;;;10515967;28;20698;-73
2022/10/10 11:30:24;;;;;;;6.07;5.57;;;20.40;44.10;;;;;;10522953;28;20227;-72
2022/10/10 11:35:39;;;;;;;5.30;4.80;;;20.60;44.10;;;;;;10519175;28;20232;-74
2022/10/10 11:40:49;;;;;;;5.70;5.10;;;20.70;43.90;;;;;;10522379;28;20275;-73
2022/10/10 11:46:01;;;;;;;5.20;4.80;;;20.80;43.70;;;;;;10525467;28;20223;-74
2022/10/10 11:51:16;;;;;;;6.27;5.57;;;20.90;43.90;;;;;;10497617;28;20876;-73
2022/10/10 11:56:28;;;;;;;5.77;5.27;;;21.00;43.60;;;;;;10521732;28;20234;-74
2022/10/10 12:01:37;;;;;;;5.17;4.47;;;21.10;43.10;;;;;;10516182;28;20228;-73
2022/10/10 12:06:44;;;;;;;5.47;4.77;;;21.20;44.20;;;;;;10515463;28;20295;-73
2022/10/10 12:11:51;;;;;;;4.63;4.23;;;21.30;43.40;;;;;;10519415;23;20254;-74
2022/10/10 12:16:56;;;;;;;5.07;4.57;;;21.40;43.50;;;;;;10499241;28;20228;-72
2022/10/10 12:22:03;;;;;;;4.73;4.33;;;21.50;43.10;;;;;;10492281;28;20806;-71
2022/10/10 12:27:45;;;;;;;5.27;3.80;;;21.60;42.90;;;;;;10507714;28;20821;-71
2022/10/10 12:32:52;;;;;;;2.93;2.73;;;21.70;42.70;;;;;;10500686;28;20261;-70
2022/10/10 12:38:23;;;;;;;2.87;2.67;;;21.70;42.60;;;;;;10502795;28;20231;-70
2022/10/10 12:43:38;;;;;;;4.20;2.87;;;21.80;42.40;;;;;;10467453;28;20231;-71
2022/10/10 12:48:43;;;;;;;4.83;3.03;;;21.80;41.70;;;;;;10509008;28;20672;-71
2022/10/10 12:53:51;;;;;;;4.83;3.70;;;21.90;42.20;;;;;;10501440;28;20250;-69
2022/10/10 12:58:54;;;;;;;3.70;3.40;;;21.90;41.80;;;;;;10501795;28;20265;-69
2022/10/10 13:03:58;;;;;;;3.73;3.40;;;22.00;42.30;;;;;;10504577;28;20224;-72
2022/10/10 13:09:03;;;;;;;3.50;3.20;;;22.00;41.40;;;;;;10503335;28;20236;-70
2022/10/10 13:14:08;;;;;;;4.97;3.30;;;22.10;41.90;;;;;;10504673;28;20297;-71
2022/10/10 13:19:20;;;;;;;3.73;2.87;;;22.10;41.60;;;;;;10508889;28;20632;-71
2022/10/10 13:24:29;;;;;;;3.47;3.13;;;22.10;41.10;;;;;;10498438;28;20232;-71
2022/10/10 13:29:34;;;;;;;2.90;2.70;;;22.20;41.00;;;;;;10502404;28;20289;-72
2022/10/10 13:34:43;;;;;;;3.90;2.63;;;22.20;41.10;;;;;;10504238;28;20236;-72
2022/10/10 13:39:48;;;;;;;3.70;2.60;;;22.20;40.90;;;;;;10503238;28;20269;-72
2022/10/10 13:44:53;;;;;;;4.40;2.70;;;22.30;41.50;;;;;;10498209;28;20270;-72
2022/10/10 13:49:57;;;;;;;3.43;2.67;;;22.30;41.00;;;;;;10502870;28;20250;-72
2022/10/10 13:55:15;;;;;;;5.37;2.43;;;22.30;41.00;;;;;;10503839;28;20224;-74
2022/10/10 14:00:21;;;;;;;3.47;2.60;;;22.30;40.70;;;;;;10501700;28;20692;-72
2022/10/10 14:05:29;;;;;;;3.00;2.40;;;22.30;40.40;;;;;;10507441;28;20292;-72
2022/10/10 14:10:34;;;;;;;2.90;2.70;;;22.30;40.40;;;;;;10498242;28;20274;-70
2022/10/10 14:15:45;;;;;;;2.77;2.50;;;22.30;41.10;;;;;;10499428;28;20322;-71
2022/10/10 14:20:52;;;;;;;3.83;2.80;;;22.30;40.20;;;;;;10501251;28;20231;-71
2022/10/10 14:25:55;;;;;;;4.30;2.60;;;22.30;40.50;;;;;;10501541;28;20227;-71
2022/10/10 14:30:58;;;;;;;2.43;2.20;;;22.30;40.90;;;;;;10499389;28;20730;-72
2022/10/10 14:36:04;;;;;;;3.60;2.70;;;22.30;41.10;;;;;;10496449;28;20228;-72
2022/10/10 14:41:11;;;;;;;3.60;3.07;;;22.40;40.40;;;;;;10493077;28;20224;-72
2022/10/10 14:46:18;;;;;;;3.00;2.80;;;22.30;40.70;;;;;;10497831;28;20278;-69
2022/10/10 14:51:22;;;;;;;3.17;2.47;;;22.40;40.50;;;;;;10498547;28;20236;-70
2022/10/10 14:56:37;;;;;;;4.40;2.53;;;22.40;41.70;;;;;;10499172;28;20285;-70
2022/10/10 15:02:00;;;;;;;3.97;2.63;;;22.40;41.00;;;;;;10503277;28;20277;-69
2022/10/10 15:07:05;;;;;;;3.30;3.00;;;22.50;40.90;;;;;;10500306;28;20446;-70
2022/10/10 15:12:16;;;;;;;3.20;2.70;;;22.40;40.40;;;;;;10499912;28;20664;-71
2022/10/10 15:17:19;;;;;;;3.17;2.70;;;22.40;41.00;;;;;;10501233;28;20240;-70
2022/10/10 15:22:23;;;;;;;4.30;3.93;;;22.40;41.10;;;;;;10502676;28;20239;-70
2022/10/10 15:27:27;;;;;;;3.70;3.20;;;22.40;41.00;;;;;;10500750;28;20769;-72
2022/10/10 15:32:31;;;;;;;3.40;3.10;;;22.40;41.30;;;;;;10497855;28;20235;-72
2022/10/10 15:37:35;;;;;;;4.93;3.33;;;22.40;41.50;;;;;;10505076;28;20281;-69
2022/10/10 15:42:39;;;;;;;4.23;3.07;;;22.40;41.40;;;;;;10493541;28;20819;-69
2022/10/10 15:47:42;;;;;;;4.53;3.93;;;22.40;41.60;;;;;;10498797;28;20757;-70
2022/10/10 15:52:50;;;;;;;6.00;4.80;;;22.30;41.60;;;;;;10504072;28;20219;-70
2022/10/10 15:57:53;;;;;;;6.20;4.47;;;22.30;41.70;;;;;;10493962;28;20623;-70
2022/10/10 16:02:56;;;;;;;7.03;5.27;;;22.30;41.90;;;;;;10495371;28;20269;-70
2022/10/10 16:08:00;;;;;;;5.00;4.10;;;22.30;41.90;;;;;;10501117;28;20746;-70
2022/10/10 16:13:03;;;;;;;4.77;4.03;;;22.30;42.10;;;;;;10499219;28;20235;-70
2022/10/10 16:18:06;;;;;;;6.87;4.03;;;22.30;42.00;;;;;;10505843;28;20475;-70
2022/10/10 16:23:11;;;;;;;4.97;4.20;;;22.30;42.20;;;;;;10502337;28;20659;-74
2022/10/10 16:28:14;;;;;;;5.83;5.33;;;22.30;42.30;;;;;;10496655;28;20254;-74
2022/10/10 16:33:17;;;;;;;9.37;8.37;;;22.30;42.20;;;;;;10499006;28;20231;-74
2022/10/10 16:38:21;;;;;;;7.80;7.03;;;22.20;42.10;;;;;;10496086;28;20284;-73
2022/10/10 16:43:24;;;;;;;7.43;6.40;;;22.20;42.30;;;;;;10505534;28;20301;-73
2022/10/10 16:48:28;;;;;;;8.20;6.53;;;22.10;42.20;;;;;;10507716;28;20235;-70
2022/10/10 16:53:32;;;;;;;5.73;5.10;;;22.10;42.20;;;;;;10502782;28;20224;-70
2022/10/10 16:58:37;;;;;;;5.00;4.60;;;22.10;42.40;;;;;;10503337;28;20253;-70
2022/10/10 17:03:40;;;;;;;4.97;4.20;;;22.00;42.30;;;;;;10502500;28;20782;-69
2022/10/10 17:08:46;;;;;;;4.73;4.30;;;22.00;42.20;;;;;;10503853;28;20378;-73
2022/10/10 17:13:50;;;;;;;5.87;4.80;;;21.90;42.20;;;;;;10506393;28;20235;-70
2022/10/10 17:18:53;;;;;;;5.73;5.23;;;21.80;42.00;;;;;;10507255;28;20239;-73
2022/10/10 17:23:58;;;;;;;7.03;5.73;;;21.70;41.80;;;;;;10510632;28;20219;-70
2022/10/10 17:29:01;;;;;;;6.50;5.90;;;21.60;41.80;;;;;;10510561;28;20231;-72
2022/10/10 17:34:04;;;;;;;6.73;6.13;;;21.50;41.60;;;;;;10505825;28;20731;-72
2022/10/10 17:39:09;;;;;;;6.93;5.03;;;21.50;41.50;;;;;;10505495;28;20633;-70
2022/10/10 17:44:12;;;;;;;6.17;4.33;;;21.40;41.50;;;;;;10508732;28;20224;-72
2022/10/10 17:49:15;;;;;;;5.00;4.50;;;21.30;41.50;;;;;;10503436;28;20231;-70
2022/10/10 17:54:20;;;;;;;5.47;3.60;;;21.20;41.40;;;;;;10507446;28;20739;-72
2022/10/10 17:59:23;;;;;;;4.00;3.70;;;21.10;41.40;;;;;;10506940;28;20565;-70
2022/10/10 18:04:26;;;;;;;4.80;4.33;;;21.00;41.30;;;;;;10501899;28;20948;-70
2022/10/10 18:09:32;;;;;;;6.53;5.17;;;20.90;41.20;;;;;;10501529;28;20315;-70
2022/10/10 18:14:35;;;;;;;4.90;4.40;;;20.70;41.00;;;;;;10501819;28;20228;-70
2022/10/10 18:19:38;;;;;;;6.93;5.37;;;20.60;41.10;;;;;;10507590;28;20228;-72
2022/10/10 18:24:42;;;;;;;5.33;4.83;;;20.50;41.10;;;;;;10509236;28;21159;-72
2022/10/10 18:29:46;;;;;;;9.17;8.27;;;20.40;41.10;;;;;;10495993;28;20231;-70
2022/10/10 18:34:49;;;;;;;10.37;7.87;;;20.30;41.10;;;;;;10493893;28;20232;-70
2022/10/10 18:39:53;;;;;;;9.63;8.23;;;20.20;41.00;;;;;;10499606;28;20260;-73
2022/10/10 18:44:56;;;;;;;11.90;10.67;;;20.10;41.10;;;;;;10498664;28;20228;-72
2022/10/10 18:50:00;;;;;;;8.97;7.20;;;20.00;41.00;;;;;;10495822;28;20216;-73
2022/10/10 18:55:05;;;;;;;6.60;6.00;;;19.90;40.90;;;;;;10498010;28;20224;-71
2022/10/10 19:00:09;;;;;;;5.50;5.00;;;19.80;41.10;;;;;;10500073;28;20231;-71
2022/10/10 19:05:13;;;;;;;8.00;7.27;;;19.60;41.00;;;;;;10501065;28;20311;-70
2022/10/10 19:10:18;;;;;;;6.70;6.10;;;19.50;40.80;;;;;;10499168;28;20239;-72
2022/10/10 19:15:21;;;;;;;6.70;6.10;;;19.40;40.80;;;;;;10499084;28;20240;-73
2022/10/10 19:20:24;;;;;;;5.90;5.40;;;19.30;40.80;;;;;;10498060;28;20601;-72
2022/10/10 19:25:37;;;;;;;6.40;5.27;;;19.20;40.90;;;;;;10504555;28;20278;-73
2022/10/10 19:30:41;;;;;;;6.33;4.87;;;19.20;41.10;;;;;;10498538;28;20239;-73
2022/10/10 19:35:46;;;;;;;6.97;5.97;;;19.10;41.00;;;;;;10500771;28;20626;-72
2022/10/10 19:40:56;;;;;;;12.23;11.13;;;19.00;41.10;;;;;;10496856;28;22282;-74
2022/10/10 19:45:59;;;;;;;12.70;11.50;;;19.00;41.00;;;;;;10501734;28;20280;-71
2022/10/10 19:51:04;;;;;;;12.43;11.23;;;18.90;40.90;;;;;;10504110;28;20243;-72
2022/10/10 19:56:13;;;;;;;9.23;7.97;;;18.80;40.90;;;;;;10496921;28;20288;-71
2022/10/10 20:01:17;;;;;;;11.67;10.53;;;18.70;40.90;;;;;;10500836;28;20752;-72
2022/10/10 20:06:21;;;;;;;9.07;8.17;;;18.60;40.80;;;;;;10496229;28;20235;-71
2022/10/10 20:11:26;;;;;;;8.80;7.07;;;18.50;40.80;;;;;;10488916;28;20227;-73
2022/10/10 20:16:29;;;;;;;7.27;6.33;;;18.40;41.00;;;;;;10492084;28;20264;-73
2022/10/10 20:21:34;;;;;;;5.97;5.37;;;18.30;40.90;;;;;;10500474;28;20236;-72
2022/10/10 20:26:38;;;;;;;6.93;6.23;;;18.20;41.10;;;;;;10491690;28;20228;-71
2022/10/10 20:31:41;;;;;;;5.93;5.27;;;18.00;41.40;;;;;;10493672;28;20228;-73
2022/10/10 20:36:44;;;;;;;5.80;4.80;;;17.80;41.20;;;;;;10494453;28;20707;-71
2022/10/10 20:41:50;;;;;;;4.70;4.30;;;17.70;41.40;;;;;;10489262;28;20232;-73
2022/10/10 20:46:53;;;;;;;5.80;4.13;;;17.60;41.60;;;;;;10492002;28;20656;-71
2022/10/10 20:51:56;;;;;;;6.07;5.47;;;17.60;41.60;;;;;;10488306;28;20238;-71
2022/10/10 20:57:00;;;;;;;6.80;6.07;;;17.60;41.80;;;;;;10493272;28;20232;-71
2022/10/10 21:02:04;;;;;;;8.43;5.30;;;17.60;42.00;;;;;;10495946;28;20235;-73
2022/10/10 21:07:07;;;;;;;6.10;5.50;;;17.50;41.80;;;;;;10492621;28;20315;-73
2022/10/10 21:12:12;;;;;;;5.23;4.73;;;17.50;41.80;;;;;;10446605;28;1296192;-72
2022/10/10 21:17:15;;;;;;;7.13;5.00;;;17.40;42.00;;;;;;10495989;28;20224;-73
2022/10/10 21:22:18;;;;;;;5.90;5.40;;;17.40;41.80;;;;;;10493727;28;20219;-73
2022/10/10 21:27:22;;;;;;;5.90;5.30;;;17.40;41.90;;;;;;10497360;28;20751;-70
2022/10/10 21:32:26;;;;;;;5.50;5.00;;;17.30;41.90;;;;;;10490131;28;20481;-72
2022/10/10 21:37:31;;;;;;;6.13;5.50;;;17.30;41.80;;;;;;10491539;28;20313;-70
2022/10/10 21:42:36;;;;;;;5.17;4.67;;;17.20;41.70;;;;;;10491190;28;20703;-70
2022/10/10 21:47:42;;;;;;;5.20;4.70;;;17.10;41.80;;;;;;10491995;28;20231;-71
2022/10/10 21:52:45;;;;;;;4.80;4.30;;;17.10;42.20;;;;;;10491430;28;20223;-71
2022/10/10 21:57:49;;;;;;;5.17;4.67;;;17.10;42.00;;;;;;10492538;28;20228;-70
2022/10/10 22:02:53;;;;;;;5.43;4.50;;;16.90;42.00;;;;;;10488669;28;20281;-73
2022/10/10 22:07:56;;;;;;;6.30;4.10;;;16.90;41.90;;;;;;10489763;28;20227;-73
2022/10/10 22:13:01;;;;;;;8.40;4.53;;;16.80;41.80;;;;;;10494010;28;20696;-73
2022/10/10 22:18:05;;;;;;;6.93;4.40;;;16.60;42.40;;;;;;10494790;28;20310;-70
2022/10/10 22:23:08;;;;;;;6.87;4.90;;;16.60;42.30;;;;;;10493059;28;20741;-70
2022/10/10 22:28:13;;;;;;;5.97;4.63;;;16.50;42.20;;;;;;10493867;28;20228;-71
2022/10/10 22:33:17;;;;;;;7.70;4.80;;;16.50;42.30;;;;;;10496060;28;20519;-71
2022/10/10 22:38:20;;;;;;;4.80;4.40;;;16.50;42.10;;;;;;10494844;28;20385;-71
2022/10/10 22:43:24;;;;;;;5.13;4.63;;;16.30;42.00;;;;;;10497422;28;20236;-71
2022/10/10 22:48:29;;;;;;;4.50;4.10;;;16.20;42.50;;;;;;10497875;28;20234;-70
2022/10/10 22:53:33;;;;;;;5.10;4.13;;;16.10;42.30;;;;;;10494155;28;20230;-71
2022/10/10 22:58:37;;;;;;;5.27;4.47;;;16.00;42.30;;;;;;10488157;28;20819;-73
2022/10/10 23:03:41;;;;;;;5.07;4.30;;;15.80;43.00;;;;;;10495611;28;20223;-72
2022/10/10 23:08:44;;;;;;;4.70;3.70;;;15.60;43.00;;;;;;10486818;28;20228;-70
2022/10/10 23:13:49;;;;;;;5.27;4.30;;;15.60;43.30;;;;;;10488045;28;20354;-70
2022/10/10 23:18:52;;;;;;;5.83;4.03;;;15.60;43.80;;;;;;10485838;28;20235;-73
2022/10/10 23:23:55;;;;;;;5.80;4.50;;;15.60;43.40;;;;;;10491222;28;20224;-72
2022/10/10 23:29:00;;;;;;;5.00;4.50;;;15.70;44.10;;;;;;10489323;28;20228;-73
2022/10/10 23:34:03;;;;;;;5.10;4.40;;;15.70;43.60;;;;;;10489560;28;20230;-73
2022/10/10 23:39:06;;;;;;;4.43;4.03;;;15.60;43.30;;;;;;10495015;28;20772;-72
2022/10/10 23:44:13;;;;;;;4.73;4.27;;;15.60;43.40;;;;;;10494449;28;20228;-73
2022/10/10 23:49:16;;;;;;;5.30;4.30;;;15.60;43.60;;;;;;10489760;28;20262;-71
2022/10/10 23:54:19;;;;;;;5.30;4.03;;;15.60;43.50;;;;;;10493163;28;20238;-73
2022/10/10 23:59:24;;;;;;;5.27;4.30;;;15.50;43.40;;;;;;10490343;28;20239;-73
